createdAt,value
2022-08-19T00:02:19.379Z,7.72
2022-08-19T00:04:49.075Z,7.35
2022-08-19T00:07:16.681Z,7.70
2022-08-19T00:09:44.202Z,7.40
2022-08-19T00:12:11.949Z,7.40
2022-08-19T00:14:40.279Z,7.40
2022-08-19T00:17:07.766Z,7.30
2022-08-19T00:19:35.491Z,6.53
2022-08-19T00:22:03.712Z,7.20
2022-08-19T00:24:31.246Z,7.43
2022-08-19T00:27:04.963Z,6.90
2022-08-19T00:29:46.302Z,7.30
2022-08-19T00:32:19.811Z,7.20
2022-08-19T00:34:47.348Z,7.43
2022-08-19T00:37:14.863Z,8.30
2022-08-19T00:39:42.369Z,8.35
2022-08-19T00:42:09.940Z,8.68
2022-08-19T00:44:37.451Z,7.38
2022-08-19T00:47:06.320Z,8.10
2022-08-19T00:50:01.914Z,7.43
2022-08-19T00:52:34.563Z,8.88
2022-08-19T00:55:03.034Z,8.38
2022-08-19T00:57:39.227Z,8.88
2022-08-19T01:00:10.823Z,8.07
2022-08-19T01:02:38.387Z,8.40
2022-08-19T01:05:08.550Z,8.35
2022-08-19T01:07:38.403Z,7.65
2022-08-19T01:10:07.658Z,7.57
2022-08-19T01:12:35.606Z,7.57
2022-08-19T01:15:03.145Z,7.15
2022-08-19T01:17:30.632Z,7.00
2022-08-19T01:19:58.134Z,7.82
2022-08-19T01:22:31.405Z,8.35
2022-08-19T01:25:00.477Z,7.47
2022-08-19T01:27:31.474Z,7.85
2022-08-19T01:30:11.508Z,7.47
2022-08-19T01:32:39.258Z,7.70
2022-08-19T01:35:06.994Z,7.97
2022-08-19T01:37:44.084Z,8.40
2022-08-19T01:40:11.913Z,7.70
2022-08-19T01:42:39.495Z,7.28
2022-08-19T01:45:08.513Z,8.30
2022-08-19T01:47:37.320Z,7.78
2022-08-19T01:50:06.932Z,8.57
2022-08-19T01:52:36.354Z,7.38
2022-08-19T01:55:04.593Z,8.43
2022-08-19T01:57:32.073Z,7.88
2022-08-19T02:00:00.514Z,8.02
2022-08-19T02:02:28.062Z,8.45
2022-08-19T02:04:55.482Z,8.02
2022-08-19T02:07:23.064Z,8.23
2022-08-19T02:09:50.526Z,7.93
2022-08-19T02:12:17.983Z,8.27
2022-08-19T02:14:45.402Z,7.88
2022-08-19T02:17:12.840Z,7.95
2022-08-19T02:19:41.463Z,8.13
2022-08-19T02:22:09.000Z,7.82
2022-08-19T02:24:36.600Z,7.47
2022-08-19T02:27:04.208Z,8.70
2022-08-19T02:29:31.951Z,8.65
2022-08-19T02:31:59.504Z,8.63
2022-08-19T02:34:26.927Z,8.25
2022-08-19T02:36:54.395Z,8.85
2022-08-19T02:39:21.905Z,7.88
2022-08-19T02:41:50.527Z,8.93
2022-08-19T02:44:29.535Z,8.25
2022-08-19T02:46:59.028Z,7.95
2022-08-19T02:49:26.451Z,8.27
2022-08-19T02:51:54.085Z,8.23
2022-08-19T02:54:21.619Z,7.80
2022-08-19T02:56:50.195Z,8.25
2022-08-19T02:59:17.652Z,7.13
2022-08-19T03:01:48.690Z,8.32
2022-08-19T03:04:16.748Z,8.38
2022-08-19T03:06:47.262Z,7.97
2022-08-19T03:09:15.332Z,9.38
2022-08-19T03:11:42.847Z,7.80
2022-08-19T03:14:11.159Z,8.65
2022-08-19T03:16:46.396Z,8.07
2022-08-19T03:19:14.683Z,10.15
2022-08-19T03:21:42.153Z,8.15
2022-08-19T03:24:10.333Z,8.35
2022-08-19T03:26:42.048Z,8.52
2022-08-19T03:29:11.346Z,7.63
2022-08-19T03:31:45.710Z,7.40
2022-08-19T03:34:28.780Z,6.60
2022-08-19T03:36:57.296Z,7.45
2022-08-19T03:39:25.967Z,7.50
2022-08-19T03:42:32.753Z,7.68
2022-08-19T03:44:43.396Z,6.60
2022-08-19T03:47:13.506Z,6.57
2022-08-19T03:49:41.665Z,6.93
2022-08-19T03:52:09.201Z,7.13
2022-08-19T03:54:37.223Z,7.95
2022-08-19T03:57:04.963Z,7.97
2022-08-19T03:59:33.638Z,6.95
2022-08-19T04:02:02.851Z,8.13
2022-08-19T04:04:30.453Z,9.18
2022-08-19T04:06:59.569Z,7.75
2022-08-19T04:09:28.055Z,8.35
2022-08-19T04:11:57.263Z,7.47
2022-08-19T04:14:25.898Z,8.13
2022-08-19T04:16:53.711Z,9.27
2022-08-19T04:19:21.692Z,9.15
2022-08-19T04:21:51.233Z,9.63
2022-08-19T04:24:18.910Z,9.25
2022-08-19T04:26:47.056Z,9.27
2022-08-19T04:29:16.737Z,8.77
2022-08-19T04:31:46.239Z,8.15
2022-08-19T04:34:14.920Z,7.28
2022-08-19T04:36:45.156Z,8.80
2022-08-19T04:39:14.255Z,7.97
2022-08-19T04:42:00.819Z,8.52
2022-08-19T04:44:33.112Z,8.63
2022-08-19T04:47:01.325Z,9.63
2022-08-19T04:49:29.514Z,8.85
2022-08-19T04:51:57.478Z,8.07
2022-08-19T04:54:38.669Z,9.85
2022-08-19T04:57:10.840Z,8.95
2022-08-19T04:59:40.276Z,8.68
2022-08-19T05:02:09.054Z,9.38
2022-08-19T05:04:39.677Z,9.90
2022-08-19T05:07:07.894Z,9.00
2022-08-19T05:09:58.051Z,8.73
2022-08-19T05:12:26.771Z,9.02
2022-08-19T05:14:58.039Z,8.98
2022-08-19T05:17:28.180Z,8.60
2022-08-19T05:20:15.432Z,8.73
2022-08-19T05:22:44.105Z,9.55
2022-08-19T05:25:13.809Z,9.20
2022-08-19T05:27:42.162Z,9.90
2022-08-19T05:30:10.568Z,7.97
2022-08-19T05:32:38.215Z,8.68
2022-08-19T05:35:06.490Z,8.30
2022-08-19T05:37:35.285Z,9.52
2022-08-19T05:40:02.992Z,9.45
2022-08-19T05:42:31.648Z,9.43
2022-08-19T05:44:59.237Z,10.35
2022-08-19T05:47:26.770Z,10.00
2022-08-19T05:49:54.278Z,11.00
2022-08-19T05:52:25.560Z,10.20
2022-08-19T05:54:56.276Z,10.43
2022-08-19T05:57:24.735Z,9.80
2022-08-19T05:59:53.232Z,10.35
2022-08-19T06:02:26.762Z,9.65
2022-08-19T06:04:54.278Z,9.85
2022-08-19T06:07:21.877Z,10.23
2022-08-19T06:10:00.135Z,10.65
2022-08-19T06:12:34.224Z,9.50
2022-08-19T06:15:02.526Z,10.00
2022-08-19T06:17:31.946Z,9.70
2022-08-19T06:20:00.134Z,10.15
2022-08-19T06:22:28.090Z,9.07
2022-08-19T06:24:56.285Z,9.18
2022-08-19T06:27:24.298Z,9.75
2022-08-19T06:29:51.765Z,9.75
2022-08-19T06:32:22.669Z,9.88
2022-08-19T06:34:50.178Z,9.70
2022-08-19T06:37:17.632Z,9.27
2022-08-19T06:39:46.035Z,8.95
2022-08-19T06:42:17.655Z,9.15
2022-08-19T06:44:48.725Z,7.60
2022-08-19T06:47:23.464Z,6.43
2022-08-19T06:50:03.964Z,5.90
2022-08-19T06:52:36.778Z,6.28
2022-08-19T06:55:06.875Z,5.53
2022-08-19T06:57:35.121Z,5.40
2022-08-19T07:00:03.114Z,5.43
2022-08-19T07:02:30.638Z,5.38
2022-08-19T07:05:06.670Z,4.78
2022-08-19T07:07:35.174Z,5.22
2022-08-19T07:10:04.958Z,5.63
2022-08-19T07:12:36.126Z,5.60
2022-08-19T07:15:06.821Z,4.97
2022-08-19T07:17:35.855Z,5.68
2022-08-19T07:20:06.716Z,5.68
2022-08-19T07:22:37.323Z,5.60
2022-08-19T07:25:05.504Z,5.72
2022-08-19T07:27:33.576Z,5.40
2022-08-19T07:30:01.889Z,6.00
2022-08-19T07:32:29.507Z,5.80
2022-08-19T07:34:57.297Z,5.80
2022-08-19T07:37:32.577Z,6.72
2022-08-19T07:40:01.406Z,6.00
2022-08-19T07:42:31.009Z,7.18
2022-08-19T07:44:59.647Z,6.25
2022-08-19T07:47:49.931Z,9.55
2022-08-19T07:50:17.135Z,8.95
2022-08-19T07:52:48.889Z,8.10
2022-08-19T07:55:42.453Z,8.05
2022-08-19T07:58:05.873Z,7.93
2022-08-19T08:00:33.685Z,8.20
2022-08-19T08:03:01.306Z,7.15
2022-08-19T08:05:47.556Z,8.30
2022-08-19T08:08:33.952Z,7.75
2022-08-19T08:11:02.561Z,7.13
2022-08-19T08:13:36.335Z,8.85
2022-08-19T08:16:10.214Z,7.80
2022-08-19T08:18:43.402Z,8.43
2022-08-19T08:21:18.614Z,7.55
2022-08-19T08:23:46.050Z,7.60
2022-08-19T08:26:15.947Z,8.60
2022-08-19T08:28:48.062Z,7.70
2022-08-19T08:31:17.204Z,8.00
2022-08-19T08:33:44.686Z,9.38
2022-08-19T08:36:12.506Z,9.10
2022-08-19T08:38:41.242Z,8.63
2022-08-19T08:41:30.135Z,8.48
2022-08-19T08:43:58.586Z,8.05
2022-08-19T08:46:39.345Z,7.88
2022-08-19T08:49:25.198Z,8.15
2022-08-19T08:51:59.363Z,8.40
2022-08-19T08:54:32.210Z,7.97
2022-08-19T08:57:04.256Z,7.88
2022-08-19T08:59:33.403Z,7.68
2022-08-19T09:02:01.670Z,7.88
2022-08-19T09:04:29.880Z,6.82
2022-08-19T09:07:18.506Z,7.78
2022-08-19T09:09:53.075Z,7.47
2022-08-19T09:12:26.727Z,7.82
2022-08-19T09:15:00.462Z,7.43
2022-08-19T09:17:32.209Z,7.32
2022-08-19T09:20:09.158Z,8.07
2022-08-19T09:22:40.666Z,7.60
2022-08-19T09:25:09.721Z,7.50
2022-08-19T09:27:43.228Z,7.65
2022-08-19T09:30:19.848Z,7.45
2022-08-19T09:32:47.343Z,7.55
2022-08-19T09:35:23.203Z,7.28
2022-08-19T09:37:54.855Z,7.00
2022-08-19T09:40:26.726Z,6.40
2022-08-19T09:42:54.350Z,6.60
2022-08-19T09:45:23.286Z,6.82
2022-08-19T09:47:53.891Z,6.20
2022-08-19T09:50:23.028Z,6.85
2022-08-19T09:52:54.072Z,6.70
2022-08-19T09:55:31.811Z,7.03
2022-08-19T09:58:01.470Z,6.93
2022-08-19T10:00:29.132Z,6.90
2022-08-19T10:02:56.665Z,7.82
2022-08-19T10:05:43.006Z,7.22
2022-08-19T10:08:13.669Z,6.88
2022-08-19T10:10:46.769Z,7.40
2022-08-19T10:13:16.058Z,6.95
2022-08-19T10:15:47.140Z,7.22
2022-08-19T10:18:19.326Z,6.13
2022-08-19T10:20:51.295Z,6.20
2022-08-19T10:23:21.083Z,6.57
2022-08-19T10:25:49.091Z,7.18
2022-08-19T10:28:19.147Z,6.15
2022-08-19T10:30:47.580Z,6.72
2022-08-19T10:33:38.018Z,6.47
2022-08-19T10:36:05.651Z,6.70
2022-08-19T10:38:33.225Z,6.63
2022-08-19T10:41:07.995Z,6.57
2022-08-19T10:43:39.431Z,6.70
2022-08-19T10:46:09.676Z,6.45
2022-08-19T10:48:44.944Z,6.15
2022-08-19T10:51:31.944Z,6.28
2022-08-19T10:53:59.863Z,6.70
2022-08-19T10:56:46.733Z,5.90
2022-08-19T10:59:14.917Z,6.40
2022-08-19T11:01:43.686Z,6.05
2022-08-19T11:04:14.675Z,6.07
2022-08-19T11:06:44.439Z,6.05
2022-08-19T11:09:12.723Z,6.68
2022-08-19T11:11:43.269Z,6.35
2022-08-19T11:14:14.986Z,6.28
2022-08-19T11:16:43.375Z,6.35
2022-08-19T11:19:11.961Z,7.28
2022-08-19T11:21:40.975Z,6.80
2022-08-19T11:24:10.289Z,7.32
2022-08-19T11:26:38.288Z,6.55
2022-08-19T11:29:07.312Z,6.22
2022-08-19T11:31:36.842Z,6.43
2022-08-19T11:34:05.791Z,6.22
2022-08-19T11:36:34.285Z,6.78
2022-08-19T11:39:02.562Z,6.80
2022-08-19T11:41:30.174Z,6.88
2022-08-19T11:43:57.857Z,6.60
2022-08-19T11:46:26.985Z,6.93
2022-08-19T11:48:55.423Z,8.13
2022-08-19T11:51:25.683Z,6.90
2022-08-19T11:53:54.257Z,6.97
2022-08-19T11:56:22.138Z,6.88
2022-08-19T11:58:49.851Z,6.25
2022-08-19T12:01:18.770Z,6.43
2022-08-19T12:03:47.049Z,6.70
2022-08-19T12:06:16.440Z,6.75
2022-08-19T12:08:44.620Z,6.63
2022-08-19T12:11:13.366Z,6.47
2022-08-19T12:13:41.309Z,6.78
2022-08-19T12:16:12.160Z,6.50
2022-08-19T12:18:42.494Z,7.53
2022-08-19T12:21:12.095Z,6.95
2022-08-19T12:23:39.717Z,6.72
2022-08-19T12:26:07.395Z,6.75
2022-08-19T12:28:35.006Z,7.53
2022-08-19T12:31:02.519Z,6.95
2022-08-19T12:33:29.987Z,7.30
2022-08-19T12:36:02.143Z,6.97
2022-08-19T12:38:29.949Z,7.00
2022-08-19T12:41:00.285Z,7.25
2022-08-19T12:43:30.382Z,7.25
2022-08-19T12:45:58.541Z,6.88
2022-08-19T12:48:34.382Z,7.78
2022-08-19T12:51:03.750Z,6.80
2022-08-19T12:53:31.349Z,7.68
2022-08-19T12:56:00.919Z,7.15
2022-08-19T12:58:29.987Z,8.07
2022-08-19T13:00:57.567Z,7.05
2022-08-19T13:03:30.179Z,7.03
2022-08-19T13:05:57.861Z,7.35
2022-08-19T13:08:25.472Z,7.53
2022-08-19T13:10:53.041Z,7.65
2022-08-19T13:13:20.687Z,7.15
2022-08-19T13:15:48.581Z,6.95
2022-08-19T13:18:16.142Z,6.47
2022-08-19T13:20:52.421Z,6.90
2022-08-19T13:23:20.778Z,6.90
2022-08-19T13:25:57.124Z,6.65
2022-08-19T13:28:29.088Z,6.13
2022-08-19T13:31:15.753Z,5.78
2022-08-19T13:33:43.252Z,5.97
2022-08-19T13:36:10.752Z,6.20
2022-08-19T13:38:39.171Z,6.68
2022-08-19T13:41:11.027Z,6.05
2022-08-19T13:43:40.972Z,6.13
2022-08-19T13:46:11.088Z,5.47
2022-08-19T13:48:38.566Z,5.90
2022-08-19T13:51:06.763Z,5.88
2022-08-19T13:53:34.424Z,5.95
2022-08-19T13:56:01.882Z,5.40
2022-08-19T13:58:29.604Z,5.45
2022-08-19T14:00:57.182Z,5.90
2022-08-19T14:03:24.996Z,5.43
2022-08-19T14:05:52.570Z,5.70
2022-08-19T14:08:20.204Z,5.82
2022-08-19T14:10:47.863Z,5.72
2022-08-19T14:13:16.821Z,5.75
2022-08-19T14:15:44.345Z,5.70
2022-08-19T14:18:12.032Z,5.97
2022-08-19T14:20:39.674Z,6.03
2022-08-19T14:23:07.326Z,6.03
2022-08-19T14:25:35.387Z,6.55
2022-08-19T14:28:02.954Z,7.05
2022-08-19T14:30:32.191Z,7.50
2022-08-19T14:33:00.700Z,7.55
2022-08-19T14:35:28.687Z,7.75
2022-08-19T14:37:57.056Z,7.05
2022-08-19T14:40:29.731Z,6.55
2022-08-19T14:43:07.756Z,6.75
2022-08-19T14:45:37.003Z,6.53
2022-08-19T14:48:05.793Z,7.35
2022-08-19T14:50:33.789Z,7.10
2022-08-19T14:53:08.124Z,8.00
2022-08-19T14:55:42.288Z,7.05
2022-08-19T14:58:10.099Z,7.30
2022-08-19T15:00:57.810Z,6.47
2022-08-19T15:03:25.246Z,6.47
2022-08-19T15:05:52.697Z,5.72
2022-08-19T15:08:20.144Z,5.55
2022-08-19T15:10:48.858Z,5.13
2022-08-19T15:13:17.150Z,5.18
2022-08-19T15:15:44.605Z,10.93
2022-08-19T15:18:13.407Z,16.00
2022-08-19T15:20:42.068Z,7.63
2022-08-19T15:23:10.205Z,5.43
2022-08-19T15:25:38.099Z,5.10
2022-08-19T15:28:05.674Z,5.00
2022-08-19T15:30:34.440Z,4.65
2022-08-19T15:33:01.991Z,4.63
2022-08-19T15:35:29.518Z,4.55
2022-08-19T15:37:57.604Z,4.35
2022-08-19T15:40:26.587Z,4.20
2022-08-19T15:42:54.383Z,5.10
2022-08-19T15:45:22.590Z,4.70
2022-08-19T15:47:50.887Z,4.18
2022-08-19T15:50:23.893Z,4.97
2022-08-19T15:52:58.769Z,5.40
2022-08-19T15:55:33.649Z,4.63
2022-08-19T15:58:28.674Z,5.22
2022-08-19T16:01:16.179Z,4.82
2022-08-19T16:04:03.285Z,5.55
2022-08-19T16:06:31.483Z,5.35
2022-08-19T16:09:02.064Z,5.55
2022-08-19T16:11:31.395Z,5.68
2022-08-19T16:14:01.362Z,5.43
2022-08-19T16:16:34.057Z,5.10
2022-08-19T16:19:03.963Z,5.80
2022-08-19T16:21:34.907Z,6.25
2022-08-19T16:24:04.697Z,5.40
2022-08-19T16:26:33.110Z,5.60
2022-08-19T16:29:01.265Z,6.57
2022-08-19T16:31:29.768Z,6.10
2022-08-19T16:33:57.706Z,6.00
2022-08-19T16:36:25.408Z,6.20
2022-08-19T16:38:53.659Z,6.20
2022-08-19T16:41:21.849Z,5.63
2022-08-19T16:43:52.692Z,5.38
2022-08-19T16:46:22.739Z,5.63
2022-08-19T16:48:50.867Z,5.57
2022-08-19T16:51:18.807Z,5.97
2022-08-19T16:53:46.425Z,5.10
2022-08-19T16:56:14.236Z,5.93
2022-08-19T16:58:42.744Z,5.93
2022-08-19T17:01:11.333Z,5.32
2022-08-19T17:03:40.060Z,5.28
2022-08-19T17:06:18.359Z,5.95
2022-08-19T17:08:52.415Z,5.05
2022-08-19T17:11:21.260Z,5.65
2022-08-19T17:13:51.042Z,5.38
2022-08-19T17:16:20.041Z,4.90
2022-08-19T17:18:52.341Z,5.05
2022-08-19T17:21:23.789Z,5.60
2022-08-19T17:23:51.353Z,5.60
2022-08-19T17:26:18.875Z,6.07
2022-08-19T17:28:50.802Z,5.72
2022-08-19T17:31:19.418Z,6.15
2022-08-19T17:33:48.580Z,6.47
2022-08-19T17:36:21.793Z,7.00
2022-08-19T17:38:49.951Z,6.28
2022-08-19T17:41:17.622Z,6.97
2022-08-19T17:43:45.494Z,6.43
2022-08-19T17:46:20.432Z,6.47
2022-08-19T17:48:53.043Z,6.88
2022-08-19T17:51:22.591Z,6.05
2022-08-19T17:53:51.084Z,6.15
2022-08-19T17:56:19.007Z,6.57
2022-08-19T17:58:57.870Z,6.68
2022-08-19T18:01:44.095Z,6.07
2022-08-19T18:04:18.883Z,6.07
2022-08-19T18:06:53.625Z,5.93
2022-08-19T18:09:24.889Z,6.63
2022-08-19T18:11:53.712Z,7.10
2022-08-19T18:14:28.104Z,7.05
2022-08-19T18:17:00.241Z,6.60
2022-08-19T18:19:30.115Z,6.80
2022-08-19T18:22:09.331Z,6.40
2022-08-19T18:24:39.158Z,6.68
2022-08-19T18:27:07.296Z,6.25
2022-08-19T18:29:38.582Z,6.20
2022-08-19T18:32:12.851Z,6.20
2022-08-19T18:34:41.371Z,6.43
2022-08-19T18:37:08.950Z,6.45
2022-08-19T18:39:55.052Z,7.30
2022-08-19T18:43:01.055Z,7.75
2022-08-19T18:45:46.903Z,7.30
2022-08-19T18:48:33.111Z,7.63
2022-08-19T18:51:01.541Z,7.20
2022-08-19T18:53:30.751Z,8.60
2022-08-19T18:55:58.455Z,7.32
2022-08-19T18:58:32.461Z,8.77
2022-08-19T19:01:01.200Z,8.27
2022-08-19T19:03:29.100Z,7.07
2022-08-19T19:05:56.655Z,8.80
2022-08-19T19:08:26.967Z,8.40
2022-08-19T19:10:55.256Z,8.80
2022-08-19T19:13:22.827Z,8.82
2022-08-19T19:15:50.378Z,8.73
2022-08-19T19:18:17.879Z,8.25
2022-08-19T19:20:45.529Z,9.32
2022-08-19T19:23:13.183Z,9.93
2022-08-19T19:25:49.800Z,8.45
2022-08-19T19:28:17.900Z,9.30
2022-08-19T19:30:45.494Z,8.48
2022-08-19T19:33:13.089Z,8.82
2022-08-19T19:35:41.164Z,10.18
2022-08-19T19:38:14.718Z,8.73
2022-08-19T19:40:42.351Z,9.10
2022-08-19T19:43:09.994Z,8.68
2022-08-19T19:45:38.299Z,8.57
2022-08-19T19:48:06.361Z,8.15
2022-08-19T19:50:33.981Z,7.60
2022-08-19T19:53:01.502Z,7.70
2022-08-19T19:55:29.348Z,7.53
2022-08-19T19:57:57.924Z,6.95
2022-08-19T20:00:26.226Z,6.60
2022-08-19T20:02:56.114Z,7.15
2022-08-19T20:05:24.369Z,7.65
2022-08-19T20:08:11.904Z,7.22
2022-08-19T20:10:40.482Z,7.45
2022-08-19T20:13:08.731Z,6.80
2022-08-19T20:15:42.186Z,6.60
2022-08-19T20:18:10.907Z,6.60
2022-08-19T20:20:38.759Z,7.25
2022-08-19T20:23:06.629Z,7.07
2022-08-19T20:25:34.386Z,6.30
2022-08-19T20:28:01.996Z,6.60
2022-08-19T20:30:31.089Z,6.20
2022-08-19T20:33:01.175Z,6.03
2022-08-19T20:35:28.665Z,6.47
2022-08-19T20:37:58.338Z,6.38
2022-08-19T20:40:27.156Z,6.13
2022-08-19T20:42:54.782Z,6.43
2022-08-19T20:45:32.510Z,5.97
2022-08-19T20:48:03.264Z,5.72
2022-08-19T20:50:32.083Z,5.40
2022-08-19T20:53:00.779Z,5.45
2022-08-19T20:55:30.469Z,6.40
2022-08-19T20:57:58.819Z,5.80
2022-08-19T21:00:26.332Z,5.63
2022-08-19T21:02:57.327Z,5.60
2022-08-19T21:05:30.280Z,5.90
2022-08-19T21:07:58.103Z,4.95
2022-08-19T21:10:26.517Z,4.97
2022-08-19T21:12:54.945Z,5.25
2022-08-19T21:15:22.562Z,5.10
2022-08-19T21:17:51.548Z,5.57
2022-08-19T21:20:19.680Z,5.13
2022-08-19T21:22:47.206Z,5.10
2022-08-19T21:25:14.741Z,4.78
2022-08-19T21:27:42.398Z,5.18
2022-08-19T21:30:10.513Z,5.10
2022-08-19T21:32:38.126Z,4.88
2022-08-19T21:35:05.821Z,4.82
2022-08-19T21:37:34.996Z,4.57
2022-08-19T21:40:02.618Z,5.10
2022-08-19T21:42:30.320Z,4.15
2022-08-19T21:44:58.174Z,4.30
2022-08-19T21:47:25.727Z,4.30
2022-08-19T21:49:53.274Z,4.40
2022-08-19T21:52:24.896Z,4.03
2022-08-19T21:54:52.699Z,4.05
2022-08-19T21:57:20.166Z,4.20
2022-08-19T21:59:47.935Z,4.15
2022-08-19T22:02:21.554Z,3.80
2022-08-19T22:04:53.632Z,3.65
2022-08-19T22:07:21.967Z,3.50
2022-08-19T22:09:50.721Z,3.72
2022-08-19T22:12:25.833Z,3.30
2022-08-19T22:14:53.828Z,3.50
2022-08-19T22:17:23.031Z,3.83
2022-08-19T22:19:52.609Z,4.28
2022-08-19T22:22:21.462Z,3.50
2022-08-19T22:24:48.942Z,3.33
2022-08-19T22:27:16.472Z,3.58
2022-08-19T22:29:43.927Z,3.35
2022-08-19T22:32:27.212Z,3.42
2022-08-19T22:34:58.066Z,3.53
2022-08-19T22:37:26.117Z,3.45
2022-08-19T22:39:53.732Z,3.67
2022-08-19T22:42:22.190Z,3.28
2022-08-19T22:44:49.727Z,3.22
2022-08-19T22:47:17.602Z,3.58
2022-08-19T22:49:45.521Z,3.60
2022-08-19T22:52:18.251Z,3.78
2022-08-19T22:54:50.165Z,3.60
2022-08-19T22:57:22.042Z,3.50
2022-08-19T22:59:50.730Z,3.97
2022-08-19T23:02:20.354Z,3.80
2022-08-19T23:04:47.986Z,4.00
2022-08-19T23:07:15.594Z,3.70
2022-08-19T23:09:43.284Z,3.92
2022-08-19T23:12:12.791Z,3.88
2022-08-19T23:14:41.365Z,3.88
2022-08-19T23:17:09.092Z,3.63
2022-08-19T23:19:38.520Z,3.88
2022-08-19T23:22:06.139Z,3.60
2022-08-19T23:24:33.670Z,3.80
2022-08-19T23:27:21.222Z,3.70
2022-08-19T23:30:19.704Z,3.53
2022-08-19T23:32:47.216Z,3.58
2022-08-19T23:35:14.813Z,3.55
2022-08-19T23:37:42.382Z,3.70
2022-08-19T23:40:10.186Z,3.40
2022-08-19T23:42:41.501Z,3.47
2022-08-19T23:45:10.024Z,3.65
2022-08-19T23:47:41.371Z,3.90
2022-08-19T23:50:09.376Z,3.65
2022-08-19T23:52:44.182Z,3.80
2022-08-19T23:55:11.808Z,3.75
2022-08-19T23:57:39.215Z,3.97
